createdAt,value
2023-05-03T00:04:24.633Z,80.40
2023-05-03T00:14:26.257Z,81.50
2023-05-03T00:24:28.119Z,82.10
2023-05-03T00:34:29.794Z,82.70
2023-05-03T00:44:31.414Z,82.70
2023-05-03T00:54:35.095Z,83.50
2023-05-03T01:04:37.750Z,85.10
2023-05-03T01:15:00.788Z,87.20
2023-05-03T01:25:13.573Z,88.10
2023-05-03T01:35:44.291Z,89.30
2023-05-03T01:45:46.999Z,90.00
2023-05-03T01:55:48.649Z,88.70
2023-05-03T02:05:50.267Z,89.30
2023-05-03T02:15:51.946Z,88.80
2023-05-03T02:25:53.565Z,88.00
2023-05-03T02:35:55.293Z,87.20
2023-05-03T02:45:57.430Z,87.80
2023-05-03T02:55:59.071Z,87.00
2023-05-03T03:06:00.816Z,86.20
2023-05-03T03:16:02.628Z,86.90
2023-05-03T03:26:04.483Z,86.80
2023-05-03T03:36:07.829Z,85.40
2023-05-03T03:46:09.453Z,85.90
2023-05-03T03:56:11.096Z,84.20
2023-05-03T04:06:12.893Z,83.50
2023-05-03T04:16:15.346Z,83.40
2023-05-03T04:26:30.196Z,82.40
2023-05-03T04:36:32.898Z,81.90
2023-05-03T04:46:34.567Z,82.60
2023-05-03T04:56:36.204Z,81.10
2023-05-03T05:06:37.972Z,81.70
2023-05-03T05:16:39.670Z,80.10
2023-05-03T05:26:42.818Z,78.70
2023-05-03T05:36:44.721Z,77.30
2023-05-03T05:46:46.719Z,77.80
2023-05-03T05:56:48.534Z,77.50
2023-05-03T06:47:00.338Z,73.40
2023-05-03T06:57:02.487Z,72.40
2023-05-03T07:37:11.337Z,71.40
2023-05-03T10:08:02.054Z,65.90
2023-05-03T10:18:07.747Z,65.20
2023-05-03T10:28:10.070Z,64.40
2023-05-03T10:38:25.887Z,63.90
2023-05-03T10:48:28.914Z,63.10
2023-05-03T10:58:35.167Z,62.50
2023-05-03T11:08:40.205Z,62.10
2023-05-03T11:18:42.040Z,61.30
2023-05-03T11:28:44.229Z,58.00
2023-05-03T11:38:46.247Z,58.40
2023-05-03T11:48:47.997Z,56.80
2023-05-03T11:59:00.022Z,56.50
2023-05-03T12:09:03.543Z,56.00
2023-05-03T12:19:05.744Z,54.90
2023-05-03T13:49:58.585Z,48.10
2023-05-03T14:00:00.289Z,44.70
2023-05-03T14:10:02.785Z,40.80
2023-05-03T14:20:09.314Z,36.80
2023-05-03T14:30:11.494Z,33.20
2023-05-03T14:40:13.637Z,29.80
2023-05-03T14:50:16.077Z,28.40
2023-05-03T15:00:18.450Z,27.20
2023-05-03T15:10:20.144Z,26.10
2023-05-03T15:20:22.577Z,27.70
2023-05-03T15:30:24.265Z,26.80
2023-05-03T15:40:27.075Z,27.70
2023-05-03T15:50:30.102Z,27.70
2023-05-03T16:00:33.712Z,28.10
2023-05-03T16:10:35.371Z,28.10
2023-05-03T16:20:37.860Z,27.10
2023-05-03T16:30:39.505Z,26.40
2023-05-03T16:50:44.176Z,26.80
2023-05-03T17:00:46.310Z,28.10
2023-05-03T17:10:48.167Z,28.20
2023-05-03T17:20:49.780Z,28.10
